Time;durP1;ratioP1;P1;durP2;ratioP2;P2;SDS_P1;SDS_P2;PMS_P1;PMS_P2;Temp;Humidity;BMP_temperature;BMP_pressure;BME280_temperature;BME280_humidity;BME280_pressure;Samples;Min_cycle;Max_cycle;Signal;HPM_P1;HPM_P2
2022/10/20 00:00:27;;;;;;;5.27;2.60;;;8.70;99.90;;;;;;5089163;28;20206;-71
2022/10/20 00:02:52;;;;;;;6.77;2.57;;;8.60;99.90;;;;;;5068608;28;20290;-72
2022/10/20 00:05:18;;;;;;;4.93;2.23;;;8.60;99.90;;;;;;5083698;28;20554;-72
2022/10/20 00:07:44;;;;;;;7.90;2.50;;;8.50;99.90;;;;;;5087644;28;20221;-72
2022/10/20 00:10:09;;;;;;;3.37;2.40;;;8.50;99.90;;;;;;5087007;28;20233;-72
2022/10/20 00:12:35;;;;;;;3.83;2.93;;;8.60;99.90;;;;;;5083639;28;20576;-71
2022/10/20 00:15:00;;;;;;;2.67;1.90;;;8.60;99.90;;;;;;5070641;28;20209;-71
2022/10/20 00:17:26;;;;;;;4.30;2.73;;;8.50;99.90;;;;;;5072260;28;20256;-71
2022/10/20 00:19:52;;;;;;;4.53;2.20;;;8.50;99.90;;;;;;5086585;28;20205;-71
2022/10/20 00:22:17;;;;;;;5.90;3.03;;;8.40;99.90;;;;;;5083105;28;20199;-71
2022/10/20 00:24:43;;;;;;;4.93;2.50;;;8.40;99.90;;;;;;5087487;28;20210;-71
2022/10/20 00:27:08;;;;;;;3.97;3.10;;;8.30;99.90;;;;;;5089482;28;20298;-71
2022/10/20 00:29:34;;;;;;;5.17;2.77;;;8.30;99.90;;;;;;5084549;28;20265;-71
2022/10/20 00:31:59;;;;;;;4.73;2.80;;;8.30;99.90;;;;;;5070777;28;20684;-72
2022/10/20 00:34:25;;;;;;;4.53;2.90;;;8.30;99.90;;;;;;5088415;28;20214;-71
2022/10/20 00:36:51;;;;;;;3.83;2.83;;;8.30;99.90;;;;;;5086308;28;20226;-71
2022/10/20 00:42:03;;;;;;;7.00;2.73;;;8.20;99.90;;;;;;5078681;28;20226;-69
2022/10/20 00:44:50;;;;;;;4.27;2.60;;;8.20;99.90;;;;;;5076015;28;20183;-69
2022/10/20 00:47:43;;;;;;;7.70;3.17;;;8.20;99.90;;;;;;5083529;28;20679;-67
2022/10/20 00:50:22;;;;;;;5.70;2.73;;;8.20;99.90;;;;;;5059203;28;20222;-69
2022/10/20 00:52:48;;;;;;;2.93;2.40;;;8.20;99.90;;;;;;5075970;28;20219;-69
2022/10/20 00:55:22;;;;;;;4.73;2.40;;;8.10;99.90;;;;;;5079464;28;20209;-68
2022/10/20 00:57:49;;;;;;;5.80;2.87;;;8.10;99.90;;;;;;5076949;28;20207;-70
2022/10/20 01:00:16;;;;;;;4.83;2.60;;;8.00;99.90;;;;;;5073534;28;20556;-69
2022/10/20 01:02:42;;;;;;;4.27;2.53;;;8.10;99.90;;;;;;5078436;28;20610;-70
2022/10/20 01:05:08;;;;;;;3.63;2.27;;;8.00;99.90;;;;;;5078046;28;20203;-70
2022/10/20 01:07:34;;;;;;;3.20;2.20;;;8.00;99.90;;;;;;5072512;28;20219;-70
2022/10/20 01:10:01;;;;;;;6.33;2.30;;;8.00;99.90;;;;;;5059760;28;20226;-69
2022/10/20 01:12:37;;;;;;;3.57;2.20;;;8.00;99.90;;;;;;5080931;28;20210;-69
2022/10/20 01:15:14;;;;;;;4.23;2.80;;;8.00;99.90;;;;;;5079084;28;20241;-70
2022/10/20 01:18:00;;;;;;;5.07;2.40;;;8.00;99.90;;;;;;5074572;28;20218;-70
2022/10/20 01:21:04;;;;;;;3.73;2.33;;;7.90;99.90;;;;;;5076675;28;20296;-70
2022/10/20 01:24:00;;;;;;;4.87;2.40;;;8.00;99.90;;;;;;5075597;28;20698;-70
2022/10/20 01:26:40;;;;;;;3.47;2.10;;;7.90;99.90;;;;;;5070101;28;20213;-70
2022/10/20 01:29:21;;;;;;;3.83;2.77;;;7.90;99.90;;;;;;5081306;28;20202;-70
2022/10/20 01:31:56;;;;;;;3.53;2.03;;;7.90;99.90;;;;;;5074083;28;20233;-71
2022/10/20 01:34:37;;;;;;;2.70;1.97;;;7.90;99.90;;;;;;5073116;28;20736;-70
2022/10/20 01:37:25;;;;;;;3.83;2.13;;;7.90;99.90;;;;;;5079267;28;20214;-70
2022/10/20 01:40:03;;;;;;;5.50;2.00;;;7.90;99.90;;;;;;5054480;28;20219;-69
2022/10/20 01:42:28;;;;;;;5.00;2.47;;;7.90;99.90;;;;;;5070296;28;20249;-69
2022/10/20 01:44:59;;;;;;;2.00;1.73;;;8.00;99.90;;;;;;5076377;28;20183;-68
2022/10/20 01:47:27;;;;;;;4.37;2.07;;;7.90;99.90;;;;;;5079867;28;20217;-69
2022/10/20 01:49:55;;;;;;;6.90;2.03;;;7.90;99.90;;;;;;5057000;28;20660;-67
2022/10/20 01:52:23;;;;;;;4.97;2.27;;;7.90;99.90;;;;;;5080768;28;20213;-69
2022/10/20 01:54:48;;;;;;;5.03;2.47;;;7.90;99.90;;;;;;5078362;28;20294;-69
2022/10/20 01:57:39;;;;;;;4.20;2.27;;;7.80;99.90;;;;;;5078323;28;20285;-68
2022/10/20 02:00:09;;;;;;;6.53;2.00;;;7.80;99.90;;;;;;5046865;28;20899;-69
2022/10/20 02:03:03;;;;;;;3.20;2.40;;;7.90;99.90;;;;;;5061348;28;20797;-69
2022/10/20 02:05:56;;;;;;;5.27;3.27;;;7.80;99.90;;;;;;5057446;28;20211;-69
2022/10/20 02:08:37;;;;;;;5.20;2.27;;;7.70;99.90;;;;;;5073746;28;20262;-68
2022/10/20 02:11:05;;;;;;;4.77;2.47;;;7.70;99.90;;;;;;5078269;28;20210;-68
2022/10/20 02:13:36;;;;;;;5.07;2.30;;;7.60;99.90;;;;;;5077491;28;20702;-69
2022/10/20 02:16:08;;;;;;;3.93;2.30;;;7.60;99.90;;;;;;5073249;28;20203;-69
2022/10/20 02:18:39;;;;;;;4.13;2.50;;;7.50;99.90;;;;;;5075589;28;20287;-69
2022/10/20 02:21:06;;;;;;;4.03;2.20;;;7.50;99.90;;;;;;5079140;28;20215;-69
2022/10/20 02:23:35;;;;;;;4.70;2.27;;;7.50;99.90;;;;;;5057834;28;20230;-69
2022/10/20 02:26:05;;;;;;;4.63;2.20;;;7.50;99.90;;;;;;5072779;28;20298;-69
2022/10/20 02:28:34;;;;;;;2.57;2.10;;;7.40;99.90;;;;;;5060391;28;20789;-69
2022/10/20 02:31:01;;;;;;;3.37;2.17;;;7.50;99.90;;;;;;5076887;28;20223;-69
2022/10/20 02:33:27;;;;;;;3.33;2.40;;;7.40;99.90;;;;;;5074048;28;20207;-69
2022/10/20 02:35:58;;;;;;;3.57;2.30;;;7.40;99.90;;;;;;5057249;28;20179;-67
2022/10/20 02:38:24;;;;;;;6.90;2.43;;;7.40;99.90;;;;;;5079625;28;20174;-69
2022/10/20 02:40:49;;;;;;;3.70;2.53;;;7.30;99.90;;;;;;5074406;28;20222;-69
2022/10/20 02:43:15;;;;;;;3.80;2.20;;;7.30;99.90;;;;;;5072764;28;20245;-69
2022/10/20 02:45:41;;;;;;;4.47;3.00;;;7.30;99.90;;;;;;5059751;28;20638;-69
2022/10/20 02:48:08;;;;;;;4.77;2.10;;;7.40;99.90;;;;;;5077486;28;20693;-69
2022/10/20 02:50:36;;;;;;;3.53;2.20;;;7.30;99.90;;;;;;5055140;28;20205;-70
2022/10/20 02:53:02;;;;;;;5.10;2.87;;;7.40;99.90;;;;;;5076375;28;20588;-69
2022/10/20 02:55:28;;;;;;;5.53;3.00;;;7.40;99.90;;;;;;5078275;28;20217;-69
2022/10/20 02:57:54;;;;;;;7.77;2.50;;;7.30;99.90;;;;;;5062568;28;20577;-68
2022/10/20 03:00:19;;;;;;;3.83;2.20;;;7.30;99.90;;;;;;5052232;28;20591;-68
2022/10/20 03:02:46;;;;;;;5.47;2.60;;;7.30;99.90;;;;;;5070435;28;20286;-69
2022/10/20 03:05:12;;;;;;;6.03;2.70;;;7.20;99.90;;;;;;5072445;28;21522;-67
2022/10/20 03:07:37;;;;;;;5.33;2.17;;;7.20;99.90;;;;;;5070350;28;20708;-69
2022/10/20 03:10:03;;;;;;;5.17;2.23;;;7.20;99.90;;;;;;5069838;28;20210;-68
2022/10/20 03:12:29;;;;;;;5.60;2.30;;;7.20;99.90;;;;;;5070361;28;20263;-68
2022/10/20 03:14:54;;;;;;;3.93;2.90;;;7.20;99.90;;;;;;5069931;28;20662;-68
2022/10/20 03:17:20;;;;;;;3.90;2.83;;;7.20;99.90;;;;;;5052886;28;20545;-69
2022/10/20 03:19:46;;;;;;;3.00;2.40;;;7.20;99.90;;;;;;5047733;28;20218;-68
2022/10/20 03:22:11;;;;;;;3.70;2.37;;;7.20;99.90;;;;;;5069960;28;20215;-67
2022/10/20 03:24:37;;;;;;;5.33;2.57;;;7.20;99.90;;;;;;5070383;28;20211;-68
2022/10/20 03:27:02;;;;;;;7.00;2.90;;;7.20;99.90;;;;;;5071007;28;20221;-69
2022/10/20 03:29:28;;;;;;;4.53;2.30;;;7.20;99.90;;;;;;5052189;28;20266;-66
2022/10/20 03:31:53;;;;;;;3.67;2.63;;;7.10;99.90;;;;;;5069184;28;20245;-67
2022/10/20 03:34:19;;;;;;;8.73;3.00;;;7.10;99.90;;;;;;5052172;28;20206;-68
2022/10/20 03:36:44;;;;;;;4.23;2.70;;;7.10;99.90;;;;;;5069867;28;20264;-69
2022/10/20 03:39:10;;;;;;;5.57;2.87;;;7.00;99.90;;;;;;5050416;28;20267;-67
2022/10/20 03:41:35;;;;;;;6.20;2.73;;;7.00;99.90;;;;;;5048246;28;20219;-68
2022/10/20 03:44:01;;;;;;;5.70;2.67;;;7.00;99.90;;;;;;5069732;28;20210;-68
2022/10/20 03:46:26;;;;;;;5.83;2.83;;;7.00;99.90;;;;;;5051888;28;20216;-69
2022/10/20 03:48:52;;;;;;;7.17;2.53;;;7.00;99.90;;;;;;5071352;28;20663;-66
2022/10/20 03:51:18;;;;;;;3.73;2.67;;;7.00;99.90;;;;;;5069592;28;20214;-68
2022/10/20 03:53:43;;;;;;;3.67;2.50;;;7.00;99.90;;;;;;5052048;28;20183;-69
2022/10/20 03:56:13;;;;;;;4.67;2.33;;;6.90;99.90;;;;;;5070242;28;20196;-69
2022/10/20 03:58:38;;;;;;;5.77;3.17;;;6.90;99.90;;;;;;5070995;28;20218;-68
2022/10/20 04:01:05;;;;;;;5.13;3.27;;;6.90;99.90;;;;;;5069100;28;20218;-68
2022/10/20 04:03:31;;;;;;;4.60;2.70;;;6.90;99.90;;;;;;5069602;28;20218;-68
2022/10/20 04:05:56;;;;;;;5.47;2.77;;;6.90;99.90;;;;;;5069285;28;20186;-68
2022/10/20 04:08:22;;;;;;;4.60;2.83;;;6.80;99.90;;;;;;5070274;28;20175;-68
2022/10/20 04:10:47;;;;;;;4.73;2.93;;;6.80;99.90;;;;;;5051296;28;20582;-68
2022/10/20 04:13:13;;;;;;;7.97;3.37;;;6.70;99.90;;;;;;5069418;28;20582;-68
2022/10/20 04:15:38;;;;;;;6.10;2.80;;;6.70;99.90;;;;;;5070895;28;20783;-69
2022/10/20 04:18:04;;;;;;;7.17;2.80;;;6.70;99.90;;;;;;5069439;28;20277;-67
2022/10/20 04:20:30;;;;;;;5.37;3.00;;;6.60;99.90;;;;;;5069810;28;20595;-68
2022/10/20 04:22:55;;;;;;;7.37;3.07;;;6.60;99.90;;;;;;5051259;28;20218;-68
2022/10/20 04:25:21;;;;;;;5.37;3.10;;;6.60;99.90;;;;;;5069401;28;20260;-68
2022/10/20 04:27:46;;;;;;;4.60;2.87;;;6.60;99.90;;;;;;5070512;28;20268;-69
2022/10/20 04:30:12;;;;;;;4.97;2.97;;;6.60;99.90;;;;;;5068964;28;20705;-66
2022/10/20 04:32:37;;;;;;;5.43;3.00;;;6.60;99.90;;;;;;5069959;28;20183;-69
2022/10/20 04:35:03;;;;;;;7.67;2.87;;;6.60;99.90;;;;;;5069334;28;20283;-68
2022/10/20 04:37:29;;;;;;;7.07;3.07;;;6.60;99.90;;;;;;5069603;28;20211;-68
2022/10/20 04:39:56;;;;;;;5.23;2.90;;;6.60;99.90;;;;;;5068816;28;20230;-67
2022/10/20 04:42:22;;;;;;;6.10;2.83;;;6.50;99.90;;;;;;5053378;28;20318;-69
2022/10/20 04:44:47;;;;;;;7.70;3.03;;;6.60;99.90;;;;;;5073216;28;20270;-70
2022/10/20 04:47:13;;;;;;;8.00;3.23;;;6.60;99.90;;;;;;5073125;28;20629;-68
2022/10/20 04:49:39;;;;;;;5.53;3.40;;;6.60;99.90;;;;;;5074537;28;20215;-69
2022/10/20 04:52:05;;;;;;;10.97;3.53;;;6.60;99.90;;;;;;5073752;28;20215;-69
2022/10/20 04:54:30;;;;;;;7.87;4.47;;;6.50;99.90;;;;;;5073037;28;20211;-69
2022/10/20 04:56:56;;;;;;;6.93;3.80;;;6.50;99.90;;;;;;5072772;28;20233;-70
2022/10/20 04:59:22;;;;;;;4.80;3.53;;;6.50;99.90;;;;;;5067590;28;20183;-70
2022/10/20 05:01:47;;;;;;;5.47;3.70;;;6.50;99.90;;;;;;5054943;28;20218;-70
2022/10/20 05:04:19;;;;;;;5.53;4.17;;;6.50;99.90;;;;;;5072715;28;20214;-69
2022/10/20 05:06:45;;;;;;;9.03;4.17;;;6.50;99.90;;;;;;5072533;28;20217;-69
2022/10/20 05:09:11;;;;;;;5.53;3.53;;;6.50;99.90;;;;;;5072345;28;20211;-69
2022/10/20 05:11:36;;;;;;;7.43;3.83;;;6.50;99.90;;;;;;5054952;28;20231;-70
2022/10/20 05:14:02;;;;;;;6.93;3.63;;;6.60;99.90;;;;;;5054560;28;20679;-69
2022/10/20 05:16:28;;;;;;;5.83;3.70;;;6.60;99.90;;;;;;5068460;28;20233;-69
2022/10/20 05:18:54;;;;;;;7.97;3.77;;;6.60;99.90;;;;;;5076910;28;20222;-68
2022/10/20 05:21:23;;;;;;;7.87;4.40;;;6.60;99.90;;;;;;5062473;28;20221;-69
2022/10/20 05:23:53;;;;;;;6.83;3.77;;;6.60;99.90;;;;;;5076103;28;20222;-70
2022/10/20 05:26:19;;;;;;;8.83;4.17;;;6.60;99.90;;;;;;5072878;28;20198;-69
2022/10/20 05:28:46;;;;;;;5.27;3.70;;;6.60;99.90;;;;;;5079387;28;20844;-70
2022/10/20 05:31:13;;;;;;;7.00;4.00;;;6.60;99.90;;;;;;5060719;28;20297;-68
2022/10/20 05:33:43;;;;;;;9.60;4.40;;;6.60;99.90;;;;;;5074665;28;20210;-69
2022/10/20 05:36:10;;;;;;;5.83;3.87;;;6.50;99.90;;;;;;5061104;28;20247;-69
2022/10/20 05:38:36;;;;;;;8.10;4.20;;;6.50;99.90;;;;;;5061175;28;20667;-69
2022/10/20 05:41:09;;;;;;;6.70;3.83;;;6.50;99.90;;;;;;5076331;28;20226;-69
2022/10/20 05:43:35;;;;;;;7.77;4.40;;;6.50;99.90;;;;;;5073006;28;20697;-69
2022/10/20 05:46:01;;;;;;;8.97;4.33;;;6.40;99.90;;;;;;5060577;28;20272;-69
2022/10/20 05:48:26;;;;;;;5.83;4.10;;;6.40;99.90;;;;;;5057417;28;20210;-69
2022/10/20 05:50:52;;;;;;;7.27;4.60;;;6.40;99.90;;;;;;5073955;28;20229;-68
2022/10/20 05:53:18;;;;;;;10.37;4.17;;;6.40;99.90;;;;;;5079596;28;20183;-69
2022/10/20 05:55:44;;;;;;;9.40;4.63;;;6.40;99.90;;;;;;5077705;28;20222;-70
2022/10/20 05:58:09;;;;;;;8.77;4.70;;;6.40;99.90;;;;;;5076598;28;20207;-69
2022/10/20 06:00:40;;;;;;;7.00;4.10;;;6.40;99.90;;;;;;5071923;28;20211;-69
2022/10/20 06:03:07;;;;;;;11.97;5.00;;;6.50;99.90;;;;;;5080475;28;20719;-69
2022/10/20 06:05:33;;;;;;;9.00;4.70;;;6.60;99.90;;;;;;5077236;28;20187;-68
2022/10/20 06:07:58;;;;;;;8.73;4.40;;;6.60;99.90;;;;;;5074323;28;20584;-70
2022/10/20 06:10:24;;;;;;;5.77;4.03;;;6.80;99.90;;;;;;5074845;28;20229;-69
2022/10/20 06:12:49;;;;;;;7.77;4.90;;;7.20;99.90;;;;;;5077053;28;20746;-70
2022/10/20 06:15:15;;;;;;;6.77;4.23;;;8.00;99.90;;;;;;5076272;28;20210;-69
2022/10/20 06:17:41;;;;;;;8.77;4.57;;;8.60;99.90;;;;;;5071091;28;20175;-70
2022/10/20 06:20:06;;;;;;;7.33;4.53;;;8.80;99.90;;;;;;5080174;28;20307;-69
2022/10/20 06:22:32;;;;;;;7.43;4.47;;;9.80;99.90;;;;;;5076706;28;20214;-70
2022/10/20 06:24:58;;;;;;;8.53;4.23;;;10.20;99.90;;;;;;5074343;28;20207;-68
2022/10/20 06:27:23;;;;;;;7.60;3.97;;;10.80;99.90;;;;;;5075099;28;20264;-70
2022/10/20 06:29:49;;;;;;;6.13;4.00;;;9.90;99.90;;;;;;5076822;28;20206;-69
2022/10/20 06:32:17;;;;;;;6.93;4.30;;;9.80;99.90;;;;;;5076769;28;20255;-69
2022/10/20 06:34:42;;;;;;;7.93;4.17;;;10.90;99.90;;;;;;5072249;28;20215;-69
2022/10/20 06:37:09;;;;;;;9.27;3.73;;;11.90;99.90;;;;;;5080155;28;20214;-70
2022/10/20 06:39:34;;;;;;;8.30;4.60;;;12.00;99.90;;;;;;5076104;28;20215;-70
2022/10/20 06:42:01;;;;;;;9.67;4.20;;;12.00;99.90;;;;;;5090050;22;20780;-72
2022/10/20 06:44:27;;;;;;;14.50;5.20;;;12.00;99.90;;;;;;5072860;28;20182;-72
2022/10/20 06:46:53;;;;;;;9.73;4.73;;;12.40;99.90;;;;;;5070773;28;20206;-72
2022/10/20 06:49:19;;;;;;;9.63;4.57;;;13.40;99.90;;;;;;5069249;28;20336;-72
2022/10/20 06:51:45;;;;;;;7.70;4.17;;;14.00;99.90;;;;;;5086214;28;20613;-72
2022/10/20 06:54:11;;;;;;;7.43;4.20;;;13.70;99.90;;;;;;5078775;28;20215;-72
2022/10/20 06:56:38;;;;;;;7.53;4.27;;;13.90;99.90;;;;;;5085971;28;20182;-72
2022/10/20 06:59:03;;;;;;;10.97;5.33;;;13.70;99.90;;;;;;5066446;28;20230;-72
2022/10/20 07:01:36;;;;;;;6.63;3.87;;;14.40;99.90;;;;;;5061646;28;20669;-72
2022/10/20 07:04:05;;;;;;;7.93;4.27;;;14.70;99.90;;;;;;5080196;28;20969;-72
2022/10/20 07:06:39;;;;;;;9.10;4.80;;;14.20;99.90;;;;;;5081450;28;20747;-72
2022/10/20 07:09:07;;;;;;;14.13;5.20;;;14.80;99.90;;;;;;5079965;28;20210;-71
2022/10/20 07:11:33;;;;;;;9.80;4.63;;;14.40;99.90;;;;;;5079620;28;20199;-72
2022/10/20 07:14:00;;;;;;;9.47;4.80;;;15.00;99.90;;;;;;5079334;28;20655;-72
2022/10/20 07:16:28;;;;;;;9.20;4.88;;;14.70;99.90;;;;;;5086671;28;20202;-72
2022/10/20 07:18:56;;;;;;;8.85;5.20;;;15.60;99.90;;;;;;5078565;28;20704;-72
2022/10/20 07:21:25;;;;;;;8.07;5.10;;;15.10;99.90;;;;;;5079810;28;20198;-72
2022/10/20 07:23:51;;;;;;;8.00;4.73;;;14.10;99.90;;;;;;5081813;28;20198;-73
2022/10/20 07:26:22;;;;;;;9.77;4.63;;;14.60;99.90;;;;;;5082084;28;20586;-71
2022/10/20 07:28:50;;;;;;;7.13;4.27;;;15.00;99.90;;;;;;5074358;28;20693;-72
2022/10/20 07:31:19;;;;;;;10.52;4.95;;;14.90;99.90;;;;;;5079219;28;20573;-71
2022/10/20 07:33:45;;;;;;;9.73;4.97;;;15.40;99.90;;;;;;5080024;28;20211;-71
2022/10/20 07:36:20;;;;;;;14.93;5.37;;;15.10;99.90;;;;;;5078057;28;20282;-70
2022/10/20 07:38:46;;;;;;;6.35;4.30;;;14.50;99.90;;;;;;5079170;28;20170;-73
2022/10/20 07:41:13;;;;;;;6.70;4.97;;;14.00;99.90;;;;;;5079306;28;20963;-70
2022/10/20 07:43:39;;;;;;;7.57;4.70;;;14.10;99.90;;;;;;5080003;28;20229;-72
2022/10/20 07:46:05;;;;;;;11.07;4.80;;;14.00;99.90;;;;;;5063134;28;20589;-72
2022/10/20 07:48:32;;;;;;;6.40;4.27;;;13.60;99.90;;;;;;5081464;28;20217;-71
2022/10/20 07:51:23;;;;;;;10.83;5.00;;;13.80;99.90;;;;;;5078440;28;20204;-72
2022/10/20 07:53:50;;;;;;;7.87;4.40;;;13.40;99.90;;;;;;5078225;28;20691;-73
2022/10/20 07:56:16;;;;;;;7.97;4.40;;;13.00;99.90;;;;;;5079400;28;20179;-72
2022/10/20 07:58:42;;;;;;;8.87;4.33;;;14.10;99.90;;;;;;5080286;28;20209;-72
2022/10/20 08:01:09;;;;;;;8.70;4.70;;;13.70;99.90;;;;;;5077538;28;20207;-72
2022/10/20 08:03:35;;;;;;;9.00;4.73;;;14.30;99.90;;;;;;5080575;28;20245;-73
2022/10/20 08:06:01;;;;;;;14.40;5.10;;;13.80;99.90;;;;;;5078315;28;20186;-72
2022/10/20 08:08:26;;;;;;;9.13;5.17;;;13.40;99.90;;;;;;5061797;28;20189;-74
2022/10/20 08:10:52;;;;;;;8.43;4.60;;;13.20;99.90;;;;;;5060619;28;20233;-72
2022/10/20 08:13:18;;;;;;;8.60;4.07;;;12.70;99.90;;;;;;5078868;28;20203;-73
2022/10/20 08:15:43;;;;;;;9.27;5.33;;;12.50;99.90;;;;;;5081405;28;20628;-72
2022/10/20 08:18:09;;;;;;;9.70;5.27;;;12.50;99.90;;;;;;5082164;28;20211;-71
2022/10/20 08:20:34;;;;;;;7.07;5.13;;;12.90;99.90;;;;;;5084979;28;20186;-72
2022/10/20 08:23:00;;;;;;;8.57;4.70;;;13.30;99.90;;;;;;5082164;28;20248;-72
2022/10/20 08:25:26;;;;;;;5.83;4.33;;;13.30;99.90;;;;;;5085300;28;20259;-73
2022/10/20 08:27:51;;;;;;;7.97;4.67;;;13.20;99.90;;;;;;5063772;28;20210;-72
2022/10/20 08:30:17;;;;;;;13.93;5.23;;;13.40;99.90;;;;;;5082314;28;20693;-71
2022/10/20 08:32:42;;;;;;;8.07;4.97;;;13.40;99.90;;;;;;5083887;28;20672;-72
2022/10/20 08:35:08;;;;;;;10.37;4.70;;;13.50;99.90;;;;;;5083844;28;20187;-71
2022/10/20 08:37:35;;;;;;;10.07;4.40;;;13.50;99.90;;;;;;5085677;28;20211;-71
2022/10/20 08:40:04;;;;;;;8.63;3.97;;;13.00;99.90;;;;;;5081645;28;20693;-72
2022/10/20 08:42:37;;;;;;;7.27;3.57;;;13.00;99.90;;;;;;5083423;28;20214;-71
2022/10/20 08:45:03;;;;;;;6.97;4.37;;;12.90;99.90;;;;;;5081100;28;20213;-72
2022/10/20 08:47:36;;;;;;;6.93;3.60;;;12.80;99.90;;;;;;5085001;28;20563;-71
2022/10/20 08:50:05;;;;;;;6.10;3.93;;;12.40;99.90;;;;;;5081740;28;20241;-72
2022/10/20 08:52:31;;;;;;;6.27;3.40;;;12.90;99.90;;;;;;5083868;28;20213;-72
2022/10/20 08:54:57;;;;;;;6.47;3.60;;;12.80;99.90;;;;;;5066112;28;20202;-71
2022/10/20 08:57:27;;;;;;;8.50;4.47;;;12.60;99.90;;;;;;5065105;28;20199;-72
2022/10/20 08:59:55;;;;;;;6.20;3.77;;;13.00;99.90;;;;;;5082103;28;20187;-72
2022/10/20 09:02:21;;;;;;;5.57;3.70;;;12.90;99.90;;;;;;5085079;28;20287;-71
2022/10/20 09:04:54;;;;;;;6.20;3.60;;;12.90;99.90;;;;;;5084147;28;20203;-72
2022/10/20 09:07:31;;;;;;;7.80;3.63;;;13.00;99.90;;;;;;5072475;28;20213;-72
2022/10/20 09:10:15;;;;;;;6.97;3.70;;;13.10;99.90;;;;;;5079206;28;20210;-73
2022/10/20 09:12:42;;;;;;;6.87;4.50;;;13.10;99.90;;;;;;5063091;28;20199;-73
2022/10/20 09:15:11;;;;;;;8.23;3.83;;;13.00;99.90;;;;;;5066712;28;20246;-73
2022/10/20 09:17:39;;;;;;;6.63;4.17;;;12.90;99.90;;;;;;5085148;28;20166;-73
2022/10/20 09:20:11;;;;;;;6.80;4.50;;;12.70;99.90;;;;;;5083829;28;20293;-72
2022/10/20 09:22:37;;;;;;;7.50;4.20;;;12.70;99.90;;;;;;5084503;28;20214;-72
2022/10/20 09:25:03;;;;;;;15.27;8.77;;;12.90;99.90;;;;;;5069341;28;20298;-72
2022/10/20 09:27:38;;;;;;;17.33;10.53;;;13.00;99.90;;;;;;5080855;28;20261;-73
2022/10/20 09:30:32;;;;;;;10.40;4.20;;;13.00;99.90;;;;;;5080452;28;20275;-72
2022/10/20 09:32:58;;;;;;;5.77;4.00;;;12.80;99.90;;;;;;5067153;28;20202;-73
2022/10/20 09:35:31;;;;;;;7.33;3.80;;;12.80;99.90;;;;;;5084226;28;20178;-72
2022/10/20 09:38:22;;;;;;;11.87;3.93;;;12.60;99.90;;;;;;5080362;28;20367;-72
2022/10/20 09:41:09;;;;;;;6.00;4.00;;;12.70;99.90;;;;;;5066013;28;20206;-72
2022/10/20 09:43:46;;;;;;;10.80;4.50;;;12.70;99.90;;;;;;5083285;28;20222;-71
2022/10/20 09:46:16;;;;;;;7.60;3.73;;;12.70;99.90;;;;;;5080882;28;20218;-72
2022/10/20 09:48:46;;;;;;;7.23;4.27;;;12.90;99.90;;;;;;5081624;28;20644;-73
2022/10/20 09:51:15;;;;;;;6.33;4.27;;;12.90;99.90;;;;;;5082764;28;20337;-72
2022/10/20 09:54:16;;;;;;;10.53;4.10;;;12.90;99.90;;;;;;5080622;28;20174;-74
2022/10/20 09:56:43;;;;;;;6.87;4.13;;;12.90;99.90;;;;;;5065186;28;20320;-72
2022/10/20 09:59:20;;;;;;;6.23;3.77;;;12.70;99.90;;;;;;5081457;28;20649;-73
2022/10/20 10:02:15;;;;;;;5.90;4.20;;;12.60;99.90;;;;;;5080650;28;20660;-73
2022/10/20 10:04:45;;;;;;;5.30;3.77;;;12.50;99.90;;;;;;5050564;28;20210;-73
2022/10/20 10:07:29;;;;;;;5.30;3.80;;;12.90;99.90;;;;;;5066503;28;20214;-72
2022/10/20 10:10:06;;;;;;;6.40;4.47;;;12.70;99.90;;;;;;5061938;28;20215;-72
2022/10/20 10:12:33;;;;;;;6.53;3.90;;;12.90;99.90;;;;;;5064033;28;20218;-73
2022/10/20 10:15:03;;;;;;;7.23;3.57;;;13.00;99.90;;;;;;5080132;28;20551;-73
2022/10/20 10:17:37;;;;;;;5.40;3.60;;;12.90;99.90;;;;;;5085739;28;20174;-72
2022/10/20 10:20:26;;;;;;;5.93;3.47;;;13.00;99.90;;;;;;5063150;28;20213;-73
2022/10/20 10:23:05;;;;;;;8.00;3.70;;;13.30;99.90;;;;;;5071491;28;20634;-73
2022/10/20 10:25:30;;;;;;;7.47;3.70;;;13.20;99.90;;;;;;5081860;28;20297;-73
2022/10/20 10:28:05;;;;;;;4.70;3.27;;;13.20;99.90;;;;;;5071448;28;20724;-73
2022/10/20 10:30:33;;;;;;;6.70;3.13;;;13.30;99.90;;;;;;5081731;28;20354;-73
2022/10/20 10:32:59;;;;;;;6.87;2.73;;;13.40;99.90;;;;;;5079455;28;20214;-72
2022/10/20 10:35:33;;;;;;;6.07;3.53;;;13.50;99.90;;;;;;5082798;28;20190;-73
2022/10/20 10:37:59;;;;;;;5.43;3.10;;;13.60;99.90;;;;;;5079105;28;20590;-72
2022/10/20 10:40:37;;;;;;;5.30;3.10;;;13.60;99.90;;;;;;5080850;28;20214;-72
2022/10/20 10:43:13;;;;;;;4.13;2.90;;;13.70;99.90;;;;;;5079790;28;20227;-72
2022/10/20 10:46:05;;;;;;;5.73;2.80;;;13.80;99.90;;;;;;5050573;28;20224;-73
2022/10/20 10:48:46;;;;;;;6.40;2.70;;;13.70;99.90;;;;;;5069510;28;20217;-73
2022/10/20 10:51:24;;;;;;;8.17;3.03;;;13.60;99.90;;;;;;5081061;28;20313;-72
2022/10/20 10:53:50;;;;;;;4.97;2.80;;;13.60;99.90;;;;;;5068749;28;20543;-73
2022/10/20 10:56:33;;;;;;;8.77;3.10;;;13.40;99.90;;;;;;5080357;28;20179;-72
2022/10/20 10:59:18;;;;;;;5.23;2.70;;;13.60;99.90;;;;;;5079023;28;20218;-73
2022/10/20 11:02:01;;;;;;;5.60;2.80;;;13.60;99.90;;;;;;5068528;28;20214;-73
2022/10/20 11:04:35;;;;;;;5.53;3.20;;;13.70;99.90;;;;;;5068247;28;20239;-72
2022/10/20 11:07:13;;;;;;;4.60;3.30;;;13.90;99.90;;;;;;5065629;28;20211;-71
2022/10/20 11:10:09;;;;;;;4.43;3.30;;;13.60;99.90;;;;;;5080048;28;20202;-72
2022/10/20 11:13:02;;;;;;;6.63;3.20;;;13.50;99.90;;;;;;5081377;28;20799;-72
2022/10/20 11:16:01;;;;;;;3.23;2.50;;;13.80;99.90;;;;;;5081671;28;20216;-71
2022/10/20 11:19:06;;;;;;;5.53;2.87;;;13.70;99.90;;;;;;5078872;28;20253;-72
2022/10/20 11:21:43;;;;;;;5.33;2.40;;;13.80;99.90;;;;;;5069608;28;20216;-72
2022/10/20 11:24:39;;;;;;;5.87;3.37;;;13.80;99.90;;;;;;5079167;28;20215;-71
2022/10/20 11:27:11;;;;;;;4.63;2.80;;;13.90;99.90;;;;;;5061357;28;20207;-72
2022/10/20 11:30:03;;;;;;;3.97;2.30;;;13.90;99.90;;;;;;5081638;28;20655;-72
2022/10/20 11:32:44;;;;;;;5.53;2.97;;;13.90;99.90;;;;;;5082006;28;20787;-72
2022/10/20 11:35:18;;;;;;;5.67;2.57;;;13.90;99.90;;;;;;5080396;28;20221;-71
2022/10/20 11:38:12;;;;;;;5.00;2.93;;;13.90;99.90;;;;;;5078391;28;20634;-71
2022/10/20 11:40:42;;;;;;;4.13;2.40;;;14.00;99.90;;;;;;5056867;28;20574;-71
2022/10/20 11:43:31;;;;;;;4.07;3.00;;;14.00;99.90;;;;;;5079394;28;20700;-71
2022/10/20 11:46:11;;;;;;;3.80;2.50;;;14.20;99.90;;;;;;5064594;28;20701;-71
2022/10/20 11:48:51;;;;;;;4.97;2.83;;;14.40;99.90;;;;;;5060813;28;20332;-71
2022/10/20 11:51:38;;;;;;;5.63;2.70;;;14.50;99.90;;;;;;5067828;28;20806;-71
2022/10/20 11:54:25;;;;;;;6.97;2.80;;;14.40;99.90;;;;;;5077986;28;20216;-71
2022/10/20 11:57:23;;;;;;;4.33;2.23;;;14.40;99.90;;;;;;5079227;28;20182;-71
2022/10/20 12:00:15;;;;;;;3.80;2.30;;;14.30;99.90;;;;;;5061762;28;20179;-71
2022/10/20 12:02:49;;;;;;;4.73;2.53;;;14.30;99.90;;;;;;5055518;28;20259;-72
2022/10/20 12:05:33;;;;;;;5.90;2.77;;;14.50;99.90;;;;;;5065584;28;20167;-70
2022/10/20 12:08:04;;;;;;;6.63;2.67;;;14.50;99.90;;;;;;5080274;28;20263;-73
2022/10/20 12:10:42;;;;;;;5.17;2.23;;;14.40;99.90;;;;;;5067866;28;20230;-72
2022/10/20 12:13:30;;;;;;;3.77;2.40;;;14.30;99.90;;;;;;5062698;28;20264;-71
2022/10/20 12:15:55;;;;;;;3.47;2.00;;;14.30;99.90;;;;;;5082614;28;20698;-71
2022/10/20 12:18:33;;;;;;;3.70;2.17;;;14.30;99.90;;;;;;5060707;28;20234;-71
2022/10/20 12:21:00;;;;;;;2.93;1.87;;;14.40;99.90;;;;;;5077650;28;20198;-70
2022/10/20 12:23:44;;;;;;;3.90;2.37;;;14.40;99.90;;;;;;5081122;28;20290;-71
2022/10/20 12:26:28;;;;;;;4.23;2.10;;;14.30;99.90;;;;;;5067576;28;20211;-72
2022/10/20 12:28:55;;;;;;;3.43;2.13;;;14.30;99.90;;;;;;5077336;28;20210;-71
2022/10/20 12:31:21;;;;;;;3.43;1.90;;;14.40;99.90;;;;;;5079341;28;20225;-71
2022/10/20 12:33:53;;;;;;;5.47;2.33;;;14.40;99.90;;;;;;5079678;28;20210;-73
2022/10/20 12:36:18;;;;;;;4.60;2.13;;;14.40;99.90;;;;;;5078147;28;20235;-74
2022/10/20 12:38:52;;;;;;;4.27;2.20;;;14.50;99.90;;;;;;5078285;28;20638;-74
2022/10/20 12:41:32;;;;;;;3.23;2.10;;;14.70;99.90;;;;;;5078812;28;20222;-73
2022/10/20 12:44:04;;;;;;;3.97;2.10;;;14.60;99.90;;;;;;5104625;23;20229;-70
2022/10/20 12:46:32;;;;;;;10.10;2.47;;;14.60;99.90;;;;;;5097239;28;20202;-69
2022/10/20 12:49:04;;;;;;;4.33;2.37;;;14.60;99.90;;;;;;5098666;28;20576;-68
2022/10/20 12:51:37;;;;;;;2.87;1.90;;;14.50;99.90;;;;;;5095184;28;20281;-69
2022/10/20 12:54:21;;;;;;;2.63;2.05;;;14.50;99.90;;;;;;5094768;28;20240;-69
2022/10/20 12:56:47;;;;;;;4.53;2.20;;;14.70;99.90;;;;;;5091280;28;20178;-69
2022/10/20 12:59:33;;;;;;;4.00;2.70;;;14.70;99.90;;;;;;5096278;28;20183;-67
2022/10/20 13:02:08;;;;;;;6.13;2.70;;;14.50;99.90;;;;;;5096768;28;20206;-68
2022/10/20 13:04:58;;;;;;;3.10;1.97;;;14.50;99.90;;;;;;5098735;28;20211;-68
2022/10/20 13:07:47;;;;;;;2.67;2.22;;;14.50;99.90;;;;;;5099142;28;20743;-68
2022/10/20 13:10:24;;;;;;;6.28;2.40;;;14.50;99.90;;;;;;5068783;28;20588;-68
2022/10/20 13:12:50;;;;;;;3.72;2.10;;;14.50;99.90;;;;;;5091296;28;20228;-69